createdAt,value
2018-12-05T00:01:52.654Z,4.95
2018-12-05T00:04:22.057Z,6.37
2018-12-05T00:06:54.036Z,4.65
2018-12-05T00:09:28.827Z,4.10
2018-12-05T00:12:06.420Z,2.12
2018-12-05T00:15:00.958Z,4.70
2018-12-05T00:17:30.441Z,3.40
2018-12-05T00:20:01.771Z,2.83
2018-12-05T00:23:01.409Z,1.62
2018-12-05T00:25:37.015Z,1.50
2018-12-05T00:28:06.468Z,1.95
2018-12-05T00:30:47.204Z,2.17
2018-12-05T00:33:16.519Z,3.90
2018-12-05T00:35:57.717Z,5.15
2018-12-05T00:41:22.353Z,4.65
2018-12-05T00:43:52.320Z,3.33
2018-12-05T00:46:22.272Z,4.10
2018-12-05T00:49:12.185Z,3.10
2018-12-05T00:51:41.540Z,2.25
2018-12-05T00:54:11.448Z,3.92
2018-12-05T00:56:40.855Z,3.33
2018-12-05T00:59:28.459Z,3.77
2018-12-05T01:01:58.234Z,4.53
2018-12-05T01:04:33.648Z,2.98
2018-12-05T01:07:04.229Z,3.60
2018-12-05T01:09:49.668Z,4.97
2018-12-05T01:12:18.986Z,5.70
2018-12-05T01:14:48.344Z,4.12
2018-12-05T01:20:11.207Z,5.75
2018-12-05T01:22:41.028Z,3.37
2018-12-05T01:25:10.331Z,3.80
2018-12-05T01:27:40.746Z,2.37
2018-12-05T01:30:15.192Z,4.92
2018-12-05T01:32:50.559Z,4.17
2018-12-05T01:35:21.732Z,2.75
2018-12-05T01:38:05.319Z,3.62
2018-12-05T01:40:41.529Z,3.10
2018-12-05T01:46:05.168Z,2.40
2018-12-05T01:48:37.580Z,2.52
2018-12-05T01:51:20.605Z,4.63
2018-12-05T01:53:54.511Z,4.00
2018-12-05T01:56:23.839Z,2.72
2018-12-05T01:58:56.969Z,3.67
2018-12-05T02:01:27.372Z,2.45
2018-12-05T02:03:57.107Z,3.07
2018-12-05T02:06:26.487Z,4.55
2018-12-05T02:09:14.067Z,2.40
2018-12-05T02:11:43.439Z,5.42
2018-12-05T02:14:12.800Z,4.83
2018-12-05T02:16:42.194Z,3.60
2018-12-05T02:19:17.665Z,2.62
2018-12-05T02:21:47.007Z,2.83
2018-12-05T02:24:16.359Z,3.25
2018-12-05T02:26:45.888Z,4.30
2018-12-05T02:29:18.680Z,2.47
2018-12-05T02:31:48.039Z,2.05
2018-12-05T02:34:17.360Z,1.70
2018-12-05T02:36:49.665Z,1.80
2018-12-05T02:39:22.346Z,1.60
2018-12-05T02:41:51.774Z,1.40
2018-12-05T02:44:21.141Z,1.40
2018-12-05T02:46:50.529Z,1.85
2018-12-05T02:49:23.371Z,1.87
2018-12-05T02:51:52.804Z,1.40
2018-12-05T02:54:22.658Z,1.50
2018-12-05T02:56:52.564Z,1.42
2018-12-05T02:59:24.989Z,2.17
2018-12-05T03:01:54.984Z,2.83
2018-12-05T03:04:25.714Z,3.58
2018-12-05T03:06:55.053Z,2.00
2018-12-05T03:09:27.484Z,2.33
2018-12-05T03:11:56.856Z,2.53
2018-12-05T03:17:08.588Z,2.20
2018-12-05T03:19:43.719Z,1.67
2018-12-05T03:22:28.848Z,2.25
2018-12-05T03:24:58.179Z,2.00
2018-12-05T03:27:27.563Z,2.05
2018-12-05T03:30:17.882Z,4.03
2018-12-05T03:32:47.260Z,2.23
2018-12-05T03:35:18.883Z,3.50
2018-12-05T03:37:48.958Z,2.20
2018-12-05T03:40:23.701Z,3.40
2018-12-05T03:42:58.444Z,2.70
2018-12-05T03:45:36.167Z,2.67
2018-12-05T03:48:12.793Z,3.37
2018-12-05T03:50:42.146Z,2.50
2018-12-05T03:56:11.831Z,2.27
2018-12-05T03:58:41.771Z,2.83
2018-12-05T04:01:27.395Z,3.30
2018-12-05T04:03:56.725Z,2.43
2018-12-05T04:06:26.644Z,3.92
2018-12-05T04:09:14.624Z,4.20
2018-12-05T04:11:47.064Z,2.40
2018-12-05T04:14:18.208Z,3.90
2018-12-05T04:17:03.756Z,3.53
2018-12-05T04:19:34.560Z,1.85
2018-12-05T04:22:04.514Z,3.67
2018-12-05T04:24:50.975Z,2.35
2018-12-05T04:27:20.331Z,1.77
2018-12-05T04:29:53.927Z,2.13
2018-12-05T04:32:24.356Z,2.43
2018-12-05T04:34:55.953Z,2.72
2018-12-05T04:37:32.884Z,2.20
2018-12-05T04:40:04.069Z,1.73
2018-12-05T04:42:52.156Z,1.57
2018-12-05T04:45:27.407Z,1.80
2018-12-05T04:47:57.991Z,1.52
2018-12-05T04:50:42.708Z,1.05
2018-12-05T04:53:13.728Z,1.40
2018-12-05T04:55:43.100Z,1.07
2018-12-05T04:58:32.564Z,1.75
2018-12-05T05:01:08.186Z,1.10
2018-12-05T05:03:39.505Z,2.20
2018-12-05T05:06:24.886Z,1.40
2018-12-05T05:08:57.988Z,2.02
2018-12-05T05:11:27.334Z,2.40
2018-12-05T05:14:10.703Z,1.73
2018-12-05T05:16:40.055Z,4.05
2018-12-05T05:19:13.223Z,3.13
2018-12-05T05:21:44.241Z,3.80
2018-12-05T05:24:13.575Z,4.08
2018-12-05T05:26:45.426Z,10.40
2018-12-05T05:29:33.880Z,7.92
2018-12-05T05:32:04.749Z,6.05
2018-12-05T05:34:35.857Z,6.10
2018-12-05T05:40:08.861Z,7.92
2018-12-05T05:42:40.989Z,9.18
2018-12-05T05:45:10.936Z,14.57
2018-12-05T05:47:40.630Z,22.17
2018-12-05T05:50:13.042Z,20.15
2018-12-05T05:52:50.124Z,22.15
2018-12-05T05:55:19.510Z,26.25
2018-12-05T05:57:48.900Z,25.13
2018-12-05T06:00:46.978Z,21.62
2018-12-05T06:03:16.917Z,20.15
2018-12-05T06:08:45.695Z,16.05
2018-12-05T06:11:21.843Z,18.25
2018-12-05T06:14:09.936Z,23.00
2018-12-05T06:16:39.302Z,20.15
2018-12-05T06:19:14.812Z,20.12
2018-12-05T06:21:44.189Z,16.30
2018-12-05T06:24:18.796Z,14.47
2018-12-05T06:26:48.627Z,15.10
2018-12-05T06:29:24.287Z,8.13
2018-12-05T06:34:57.164Z,5.83
2018-12-05T06:37:31.393Z,4.95
2018-12-05T06:40:02.547Z,7.62
2018-12-05T06:42:37.957Z,8.40
2018-12-05T06:45:07.907Z,6.72
2018-12-05T06:47:37.359Z,8.23
2018-12-05T06:50:29.853Z,5.45
2018-12-05T06:52:59.265Z,5.83
2018-12-05T06:55:28.631Z,7.97
2018-12-05T06:57:58.064Z,5.50
2018-12-05T07:00:27.486Z,5.23
2018-12-05T07:02:56.847Z,6.50
2018-12-05T07:05:26.215Z,7.00
2018-12-05T07:07:56.144Z,6.70
2018-12-05T07:10:25.640Z,9.78
2018-12-05T07:12:57.076Z,7.97
2018-12-05T07:15:44.612Z,7.58
2018-12-05T07:18:18.193Z,10.95
2018-12-05T07:20:47.603Z,11.83
2018-12-05T07:23:16.992Z,8.03
2018-12-05T07:25:56.013Z,7.55
2018-12-05T07:31:26.156Z,8.93
2018-12-05T07:33:55.610Z,6.23
2018-12-05T07:36:30.925Z,6.92
2018-12-05T07:39:07.315Z,7.05
2018-12-05T07:41:40.932Z,8.63
2018-12-05T07:47:14.303Z,8.38
2018-12-05T07:49:47.590Z,7.83
2018-12-05T07:52:22.616Z,8.10
2018-12-05T07:57:46.413Z,8.50
2018-12-05T08:00:21.519Z,7.73
2018-12-05T08:02:54.954Z,7.67
2018-12-05T08:05:24.335Z,8.23
2018-12-05T08:08:00.117Z,7.97
2018-12-05T08:10:32.355Z,5.30
2018-12-05T08:13:17.490Z,9.27
2018-12-05T08:15:50.184Z,11.73
2018-12-05T08:18:25.510Z,5.30
2018-12-05T08:20:55.023Z,4.22
2018-12-05T08:26:46.757Z,4.08
2018-12-05T08:29:22.685Z,3.13
2018-12-05T08:31:52.050Z,5.73
2018-12-05T08:34:28.748Z,4.50
2018-12-05T08:36:58.120Z,4.62
2018-12-05T08:39:43.728Z,4.17
2018-12-05T08:42:19.478Z,4.17
2018-12-05T08:45:01.003Z,3.87
2018-12-05T08:47:33.776Z,4.53
2018-12-05T08:50:08.019Z,3.80
2018-12-05T08:52:43.701Z,4.50
2018-12-05T08:55:18.950Z,6.20
2018-12-05T08:57:49.096Z,5.37
2018-12-05T09:03:36.775Z,3.37
2018-12-05T09:06:06.157Z,3.80
2018-12-05T09:08:35.532Z,7.45
2018-12-05T09:11:14.911Z,4.87
2018-12-05T09:14:06.876Z,7.50
2018-12-05T09:16:40.532Z,5.45
2018-12-05T09:19:15.503Z,4.93
2018-12-05T09:21:44.984Z,5.00
2018-12-05T09:24:23.845Z,4.40
2018-12-05T09:26:54.861Z,6.53
2018-12-05T09:29:30.057Z,6.15
2018-12-05T09:32:18.053Z,4.22
2018-12-05T09:34:47.415Z,4.77
2018-12-05T09:37:22.931Z,5.13
2018-12-05T09:39:58.749Z,4.90
2018-12-05T09:42:28.099Z,4.05
2018-12-05T09:44:58.333Z,4.47
2018-12-05T09:47:27.748Z,4.70
2018-12-05T09:50:21.149Z,3.92
2018-12-05T09:52:51.083Z,4.83
2018-12-05T09:55:20.519Z,4.28
2018-12-05T09:57:49.856Z,3.67
2018-12-05T10:00:25.417Z,6.95
2018-12-05T10:06:01.245Z,3.55
2018-12-05T10:08:30.602Z,3.80
2018-12-05T10:11:00.593Z,3.30
2018-12-05T10:13:29.986Z,2.92
2018-12-05T10:15:59.959Z,3.98
2018-12-05T10:18:41.825Z,1.83
2018-12-05T10:24:24.180Z,1.53
2018-12-05T10:26:53.794Z,1.73
2018-12-05T10:32:28.195Z,2.42
2018-12-05T10:34:57.616Z,1.97
2018-12-05T10:37:34.566Z,2.73
2018-12-05T10:40:09.615Z,3.70
2018-12-05T10:43:20.566Z,2.40
2018-12-05T10:45:51.794Z,2.40
2018-12-05T10:48:21.347Z,3.07
2018-12-05T10:51:01.127Z,2.37
2018-12-05T10:56:38.409Z,2.93
2018-12-05T10:59:18.120Z,3.00
2018-12-05T11:01:52.884Z,3.20
2018-12-05T11:07:34.111Z,3.33
2018-12-05T11:10:16.885Z,2.83
2018-12-05T11:12:52.048Z,3.50
2018-12-05T11:15:29.216Z,3.33
2018-12-05T11:18:07.652Z,3.77
2018-12-05T11:20:42.226Z,3.13
2018-12-05T11:24:15.529Z,3.47
2018-12-05T11:26:45.232Z,3.67
2018-12-05T11:29:21.353Z,3.07
2018-12-05T11:31:51.300Z,4.67
2018-12-05T11:34:21.095Z,4.57
2018-12-05T11:37:00.373Z,3.73
2018-12-05T11:39:52.158Z,2.07
2018-12-05T11:42:36.364Z,2.47
2018-12-05T11:45:13.905Z,2.27
2018-12-05T11:47:45.410Z,1.77
2018-12-05T11:50:44.613Z,2.15
2018-12-05T11:53:24.046Z,2.87
2018-12-05T11:55:57.136Z,4.13
2018-12-05T11:58:38.580Z,2.58
2018-12-05T12:01:34.957Z,2.47
2018-12-05T12:04:05.725Z,4.10
2018-12-05T12:06:52.707Z,1.87
2018-12-05T12:09:34.559Z,2.27
2018-12-05T12:12:23.610Z,3.17
2018-12-05T12:15:04.405Z,1.65
2018-12-05T12:17:41.962Z,1.82
2018-12-05T12:20:24.197Z,0.95
2018-12-05T12:23:08.607Z,2.05
2018-12-05T12:26:05.259Z,1.23
2018-12-05T12:28:47.199Z,2.33
2018-12-05T12:31:23.792Z,1.20
2018-12-05T12:37:09.310Z,1.07
2018-12-05T12:39:41.540Z,1.50
2018-12-05T12:42:10.876Z,1.87
2018-12-05T12:44:40.276Z,1.42
2018-12-05T12:50:16.959Z,1.75
2018-12-05T12:52:46.291Z,2.20
2018-12-05T12:55:15.625Z,1.82
2018-12-05T12:57:45.000Z,1.75
2018-12-05T13:00:20.879Z,1.82
2018-12-05T13:02:59.446Z,1.55
2018-12-05T13:05:42.676Z,2.52
2018-12-05T13:08:23.984Z,2.10
2018-12-05T13:10:59.436Z,2.03
2018-12-05T13:13:31.972Z,2.73
2018-12-05T13:16:04.540Z,2.35
2018-12-05T13:19:11.636Z,2.57
2018-12-05T13:21:47.643Z,3.35
2018-12-05T13:24:17.558Z,2.27
2018-12-05T13:27:02.033Z,2.33
2018-12-05T13:32:31.988Z,1.70
2018-12-05T13:35:01.336Z,2.75
2018-12-05T13:37:30.697Z,1.65
2018-12-05T13:40:00.136Z,1.95
2018-12-05T13:42:35.746Z,1.62
2018-12-05T13:48:00.044Z,1.40
2018-12-05T13:50:29.394Z,1.95
2018-12-05T13:52:58.801Z,1.53
2018-12-05T13:55:28.756Z,2.00
2018-12-05T13:57:58.683Z,2.58
2018-12-05T14:00:28.049Z,1.98
2018-12-05T14:02:57.427Z,1.33
2018-12-05T14:05:27.825Z,1.67
2018-12-05T14:07:57.785Z,2.00
2018-12-05T14:10:39.078Z,1.17
2018-12-05T14:13:08.463Z,1.40
2018-12-05T14:15:38.590Z,1.50
2018-12-05T14:18:07.960Z,1.37
2018-12-05T14:20:37.372Z,0.90
2018-12-05T14:23:06.787Z,1.23
2018-12-05T14:25:36.209Z,1.12
2018-12-05T14:28:06.217Z,1.75
2018-12-05T14:30:36.065Z,1.47
2018-12-05T14:33:05.388Z,1.47
2018-12-05T14:35:34.789Z,1.10
2018-12-05T14:38:08.136Z,1.73
2018-12-05T14:40:38.600Z,1.63
2018-12-05T14:43:11.785Z,1.20
2018-12-05T14:45:43.680Z,2.00
2018-12-05T14:48:13.075Z,1.10
2018-12-05T14:50:42.459Z,1.20
2018-12-05T14:53:11.799Z,1.23
2018-12-05T14:55:41.272Z,1.40
2018-12-05T14:58:10.635Z,1.83
2018-12-05T15:00:40.027Z,1.80
2018-12-05T15:03:09.462Z,2.37
2018-12-05T15:05:43.357Z,2.20
2018-12-05T15:08:22.695Z,2.67
2018-12-05T15:11:02.139Z,1.67
2018-12-05T15:13:42.806Z,1.30
2018-12-05T15:16:13.083Z,1.40
2018-12-05T15:19:01.034Z,1.43
2018-12-05T15:21:41.206Z,1.35
2018-12-05T15:24:31.759Z,1.67
2018-12-05T15:27:07.941Z,2.27
2018-12-05T15:29:42.208Z,1.35
2018-12-05T15:32:21.400Z,1.27
2018-12-05T15:35:02.490Z,2.00
2018-12-05T15:37:31.983Z,1.85
2018-12-05T15:40:11.427Z,2.43
2018-12-05T15:42:43.787Z,2.37
2018-12-05T15:45:30.661Z,2.42
2018-12-05T15:48:05.842Z,1.55
2018-12-05T15:50:36.225Z,1.87
2018-12-05T15:53:07.196Z,1.40
2018-12-05T15:55:45.056Z,1.30
2018-12-05T15:58:21.601Z,1.30
2018-12-05T16:00:58.214Z,2.25
2018-12-05T16:03:30.258Z,0.68
2018-12-05T16:06:02.184Z,0.93
2018-12-05T16:08:36.370Z,0.98
2018-12-05T16:11:24.552Z,0.60
2018-12-05T16:14:22.070Z,1.35
2018-12-05T16:17:00.533Z,0.70
2018-12-05T16:19:39.851Z,0.70
2018-12-05T16:22:12.319Z,1.03
2018-12-05T16:24:53.615Z,0.80
2018-12-05T16:27:35.442Z,0.60
2018-12-05T16:30:10.954Z,0.78
2018-12-05T16:32:49.943Z,0.90
2018-12-05T16:35:34.979Z,0.60
2018-12-05T16:38:07.055Z,0.65
2018-12-05T16:40:38.858Z,0.60
2018-12-05T16:43:10.106Z,0.67
2018-12-05T16:45:46.932Z,0.90
2018-12-05T16:48:18.212Z,0.75
2018-12-05T16:50:51.043Z,1.00
2018-12-05T16:56:29.739Z,0.70
2018-12-05T16:59:04.789Z,0.98
2018-12-05T17:01:40.886Z,1.45
2018-12-05T17:04:11.224Z,0.93
2018-12-05T17:06:46.040Z,1.07
2018-12-05T17:09:26.216Z,0.83
2018-12-05T17:11:56.190Z,1.27
2018-12-05T17:14:27.045Z,0.97
2018-12-05T17:16:56.856Z,1.23
2018-12-05T17:19:43.957Z,0.80
2018-12-05T17:22:13.980Z,2.17
2018-12-05T17:25:05.949Z,1.47
2018-12-05T17:27:38.229Z,0.93
2018-12-05T17:30:19.836Z,2.10
2018-12-05T17:32:57.809Z,0.93
2018-12-05T17:35:38.308Z,1.10
2018-12-05T17:38:13.071Z,0.98
2018-12-05T17:40:45.647Z,1.25
2018-12-05T17:43:15.979Z,1.15
2018-12-05T17:45:49.907Z,0.90
2018-12-05T17:48:23.947Z,0.95
2018-12-05T17:51:07.561Z,0.70
2018-12-05T17:53:45.495Z,0.78
2018-12-05T17:56:20.732Z,0.75
2018-12-05T17:58:51.594Z,0.60
2018-12-05T18:01:31.440Z,0.70
2018-12-05T18:04:07.942Z,0.70
2018-12-05T18:06:49.900Z,0.72
2018-12-05T18:09:23.612Z,1.20
2018-12-05T18:12:03.223Z,0.45
2018-12-05T18:14:34.335Z,0.57
2018-12-05T18:17:11.518Z,0.62
2018-12-05T18:19:48.472Z,0.43
2018-12-05T18:22:22.076Z,0.70
2018-12-05T18:24:51.995Z,0.70
2018-12-05T18:27:26.453Z,0.63
2018-12-05T18:30:12.647Z,0.55
2018-12-05T18:32:49.404Z,0.57
2018-12-05T18:35:20.624Z,0.70
2018-12-05T18:37:54.775Z,0.75
2018-12-05T18:40:32.122Z,0.80
2018-12-05T18:43:19.766Z,0.70
2018-12-05T18:45:54.669Z,0.60
2018-12-05T18:48:37.740Z,0.70
2018-12-05T18:51:15.153Z,0.78
2018-12-05T18:53:58.808Z,0.62
2018-12-05T18:56:35.046Z,0.70
2018-12-05T18:59:09.336Z,0.70
2018-12-05T19:01:44.625Z,0.80
2018-12-05T19:04:14.824Z,1.07
2018-12-05T19:06:47.873Z,0.70
2018-12-05T19:09:26.946Z,0.70
2018-12-05T19:12:04.420Z,0.90
2018-12-05T19:14:40.085Z,1.22
2018-12-05T19:17:10.085Z,1.37
2018-12-05T19:19:45.483Z,1.00
2018-12-05T19:22:15.437Z,0.88
2018-12-05T19:24:44.811Z,0.80
2018-12-05T19:27:19.562Z,0.90
2018-12-05T19:29:53.595Z,1.23
2018-12-05T19:32:37.452Z,0.83
2018-12-05T19:35:09.333Z,1.40
2018-12-05T19:38:02.934Z,0.72
2018-12-05T19:40:33.330Z,1.65
2018-12-05T19:43:04.963Z,1.45
2018-12-05T19:45:35.085Z,0.70
2018-12-05T19:48:24.237Z,0.80
2018-12-05T19:50:56.740Z,1.40
2018-12-05T19:53:33.118Z,0.95
2018-12-05T19:56:04.540Z,3.17
2018-12-05T19:58:43.213Z,1.33
2018-12-05T20:01:17.402Z,1.10
2018-12-05T20:03:48.765Z,1.10
2018-12-05T20:06:27.899Z,0.88
2018-12-05T20:08:59.973Z,0.85
2018-12-05T20:11:32.477Z,1.30
2018-12-05T20:14:11.599Z,1.12
2018-12-05T20:16:53.927Z,2.60
2018-12-05T20:19:50.918Z,4.78
2018-12-05T20:22:25.411Z,3.40
2018-12-05T20:24:58.058Z,4.47
2018-12-05T20:27:28.793Z,3.22
2018-12-05T20:30:14.686Z,3.47
2018-12-05T20:32:45.372Z,2.55
2018-12-05T20:35:21.395Z,4.00
2018-12-05T20:37:52.847Z,2.27
2018-12-05T20:40:27.933Z,2.85
2018-12-05T20:43:01.161Z,2.57
2018-12-05T20:45:36.090Z,3.67
2018-12-05T20:48:07.403Z,3.22
2018-12-05T20:50:40.153Z,2.58
2018-12-05T20:53:10.063Z,3.13
2018-12-05T20:55:45.023Z,6.92
2018-12-05T20:58:19.709Z,2.47
2018-12-05T21:00:50.141Z,3.12
2018-12-05T21:03:24.204Z,2.77
2018-12-05T21:06:01.415Z,2.77
2018-12-05T21:08:35.200Z,2.60
2018-12-05T21:11:06.756Z,1.73
2018-12-05T21:13:38.094Z,2.58
2018-12-05T21:16:11.182Z,3.47
2018-12-05T21:18:47.872Z,3.37
2018-12-05T21:21:22.986Z,4.70
2018-12-05T21:24:05.647Z,3.83
2018-12-05T21:26:53.259Z,4.03
2018-12-05T21:29:24.011Z,2.50
2018-12-05T21:32:04.071Z,2.55
2018-12-05T21:34:34.225Z,2.00
2018-12-05T21:37:12.214Z,2.33
2018-12-05T21:39:46.267Z,2.65
2018-12-05T21:42:26.170Z,2.08
2018-12-05T21:44:58.040Z,1.60
2018-12-05T21:47:42.277Z,1.55
2018-12-05T21:50:32.584Z,1.35
2018-12-05T21:53:04.006Z,1.27
2018-12-05T21:55:35.834Z,2.20
2018-12-05T21:58:08.121Z,1.20
2018-12-05T22:00:50.203Z,1.22
2018-12-05T22:03:19.891Z,1.50
2018-12-05T22:05:50.130Z,1.12
2018-12-05T22:08:25.236Z,1.27
2018-12-05T22:11:03.597Z,1.10
2018-12-05T22:13:33.091Z,1.10
2018-12-05T22:16:17.406Z,0.82
2018-12-05T22:18:50.632Z,1.22
2018-12-05T22:21:22.788Z,1.42
2018-12-05T22:23:53.205Z,0.80
2018-12-05T22:26:24.004Z,1.10
2018-12-05T22:28:56.905Z,0.73
2018-12-05T22:31:29.661Z,1.80
2018-12-05T22:33:59.020Z,2.02
2018-12-05T22:36:30.031Z,0.98
2018-12-05T22:39:04.806Z,1.32
2018-12-05T22:41:34.245Z,1.00
2018-12-05T22:44:05.126Z,1.27
2018-12-05T22:46:34.527Z,1.95
2018-12-05T22:49:21.833Z,2.87
2018-12-05T22:51:59.169Z,2.00
2018-12-05T22:54:32.583Z,1.90
2018-12-05T22:57:14.412Z,1.57
2018-12-05T22:59:47.242Z,1.32
2018-12-05T23:02:17.963Z,2.05
2018-12-05T23:04:47.305Z,1.45
2018-12-05T23:07:17.472Z,1.77
2018-12-05T23:09:53.753Z,3.02
2018-12-05T23:12:23.214Z,1.60
2018-12-05T23:14:54.545Z,2.17
2018-12-05T23:17:23.947Z,1.82
2018-12-05T23:19:56.604Z,2.47
2018-12-05T23:22:26.572Z,2.20
2018-12-05T23:24:56.006Z,1.55
2018-12-05T23:27:26.515Z,0.93
2018-12-05T23:30:02.592Z,2.35
2018-12-05T23:32:32.948Z,1.17
2018-12-05T23:35:02.320Z,0.98
2018-12-05T23:37:33.971Z,0.88
2018-12-05T23:40:09.789Z,1.13
2018-12-05T23:42:58.333Z,1.17
2018-12-05T23:45:27.770Z,0.80
2018-12-05T23:48:01.122Z,1.27
2018-12-05T23:50:30.555Z,0.73
2018-12-05T23:53:17.866Z,0.90
2018-12-05T23:55:47.683Z,1.03
2018-12-05T23:58:20.072Z,0.97
